Time;durP1;ratioP1;P1;durP2;ratioP2;P2;SDS_P1;SDS_P2;PMS_P1;PMS_P2;Temp;Humidity;BMP_temperature;BMP_pressure;BME280_temperature;BME280_humidity;BME280_pressure;Samples;Min_cycle;Max_cycle;Signal;HPM_P1;HPM_P2
2022/02/23 00:00:14;;;;;;;43.38;5.82;;;6.00;99.90;;;;;;5005276;28;20033;-74
2022/02/23 00:02:39;;;;;;;36.05;5.50;;;6.10;99.90;;;;;;4988819;28;20033;-74
2022/02/23 00:05:05;;;;;;;46.72;5.85;;;6.10;99.90;;;;;;5006638;28;20384;-73
2022/02/23 00:07:31;;;;;;;37.03;5.50;;;6.10;99.90;;;;;;5003998;28;20034;-73
2022/02/23 00:09:57;;;;;;;48.72;5.80;;;6.20;99.90;;;;;;5007501;28;20033;-73
2022/02/23 00:12:23;;;;;;;46.25;5.38;;;6.10;99.90;;;;;;5018196;28;20033;-72
2022/02/23 00:14:48;;;;;;;38.75;5.78;;;6.20;99.90;;;;;;5007471;28;20032;-73
2022/02/23 00:17:14;;;;;;;37.70;5.45;;;6.10;99.90;;;;;;5004519;28;20411;-74
2022/02/23 00:19:39;;;;;;;36.03;5.32;;;6.20;99.90;;;;;;5005747;28;20068;-73
2022/02/23 00:22:05;;;;;;;37.45;5.50;;;6.20;99.90;;;;;;5005089;28;20084;-72
2022/02/23 00:24:31;;;;;;;32.95;5.80;;;6.20;99.90;;;;;;5003304;28;20022;-73
2022/02/23 00:26:56;;;;;;;36.08;5.68;;;6.20;99.90;;;;;;5005306;28;20759;-73
2022/02/23 00:29:22;;;;;;;44.90;5.70;;;6.20;99.90;;;;;;5005318;28;20033;-73
2022/02/23 00:31:47;;;;;;;39.15;5.60;;;6.20;99.90;;;;;;5006607;28;20563;-73
2022/02/23 00:34:16;;;;;;;31.08;5.13;;;6.20;99.90;;;;;;5003917;28;20033;-73
2022/02/23 00:36:42;;;;;;;40.28;5.93;;;6.30;99.90;;;;;;5006072;28;20029;-73
2022/02/23 00:39:07;;;;;;;43.60;7.85;;;6.30;99.90;;;;;;5002310;28;20026;-72
2022/02/23 00:41:34;;;;;;;42.85;6.60;;;6.30;99.90;;;;;;5003014;28;21303;-72
2022/02/23 00:43:59;;;;;;;48.63;5.88;;;6.30;99.90;;;;;;5002050;28;20045;-72
2022/02/23 00:46:25;;;;;;;31.98;5.78;;;6.30;99.90;;;;;;5008459;28;20038;-73
2022/02/23 00:48:53;;;;;;;43.20;5.60;;;6.30;99.90;;;;;;5005949;28;20029;-75
2022/02/23 00:51:19;;;;;;;46.78;6.00;;;6.30;99.90;;;;;;5005545;28;20022;-73
2022/02/23 00:53:45;;;;;;;47.03;6.20;;;6.40;99.90;;;;;;5003562;28;20100;-74
2022/02/23 00:56:10;;;;;;;49.17;6.65;;;6.40;99.90;;;;;;5002686;28;20048;-72
2022/02/23 00:58:37;;;;;;;37.03;5.85;;;6.40;99.90;;;;;;5002833;28;20030;-73
2022/02/23 01:01:02;;;;;;;34.88;5.70;;;6.40;99.90;;;;;;4998806;28;20061;-74
2022/02/23 01:03:28;;;;;;;45.33;5.93;;;6.40;99.90;;;;;;5000456;28;20108;-72
2022/02/23 01:05:54;;;;;;;38.22;5.30;;;6.40;99.90;;;;;;5002788;28;20038;-73
2022/02/23 01:08:19;;;;;;;33.63;5.45;;;6.50;99.90;;;;;;5003400;28;20101;-74
2022/02/23 01:10:45;;;;;;;30.85;4.93;;;6.50;99.90;;;;;;5001861;28;20029;-73
2022/02/23 01:13:11;;;;;;;39.17;5.82;;;6.40;99.90;;;;;;4999013;28;20034;-72
2022/02/23 01:15:37;;;;;;;44.50;5.90;;;6.50;99.90;;;;;;5003341;28;20026;-73
2022/02/23 01:18:02;;;;;;;37.10;4.95;;;6.40;99.90;;;;;;5005765;28;20030;-72
2022/02/23 01:20:28;;;;;;;41.83;5.72;;;6.40;99.90;;;;;;5005040;28;20017;-73
2022/02/23 01:22:59;;;;;;;35.95;5.15;;;6.50;99.90;;;;;;5003469;28;20037;-75
2022/02/23 01:25:26;;;;;;;33.25;5.47;;;6.40;99.90;;;;;;5004635;28;22050;-72
2022/02/23 01:27:52;;;;;;;32.88;4.95;;;6.40;99.90;;;;;;5002435;28;20041;-72
2022/02/23 01:30:18;;;;;;;48.83;6.35;;;6.40;99.90;;;;;;5003921;28;20049;-73
2022/02/23 01:32:44;;;;;;;39.90;6.60;;;6.40;99.90;;;;;;5002412;28;20191;-75
2022/02/23 01:35:10;;;;;;;43.85;6.07;;;6.50;99.90;;;;;;5002637;28;20025;-72
2022/02/23 01:37:36;;;;;;;30.63;5.90;;;6.50;99.90;;;;;;5002374;28;20030;-72
2022/02/23 01:40:02;;;;;;;35.97;4.80;;;6.50;99.90;;;;;;5006129;28;20048;-75
2022/02/23 01:42:28;;;;;;;39.17;5.47;;;6.50;99.90;;;;;;5003759;28;20514;-74
2022/02/23 01:44:54;;;;;;;24.70;3.83;;;6.50;99.90;;;;;;5025017;28;20034;-75
2022/02/23 01:47:19;;;;;;;32.88;4.80;;;6.40;99.90;;;;;;5002993;28;20033;-72
2022/02/23 01:49:45;;;;;;;27.83;4.68;;;6.50;99.90;;;;;;5000430;28;20075;-72
2022/02/23 01:52:11;;;;;;;38.80;6.00;;;6.50;99.90;;;;;;5002421;28;20275;-73
2022/02/23 01:54:36;;;;;;;38.95;6.13;;;6.50;99.90;;;;;;5002304;28;20034;-74
2022/02/23 01:57:02;;;;;;;25.40;4.30;;;6.50;99.90;;;;;;4999540;28;20092;-74
2022/02/23 01:59:28;;;;;;;38.90;6.65;;;6.50;99.90;;;;;;4999747;28;20037;-75
2022/02/23 02:01:54;;;;;;;33.33;6.63;;;6.50;99.90;;;;;;5000335;28;20131;-74
2022/02/23 02:04:23;;;;;;;38.55;6.45;;;6.50;99.90;;;;;;5001746;28;20069;-74
2022/02/23 02:06:50;;;;;;;30.42;5.40;;;6.50;99.90;;;;;;5000347;28;20069;-74
2022/02/23 02:09:16;;;;;;;40.03;5.18;;;6.50;99.90;;;;;;5001372;28;21153;-74
2022/02/23 02:11:42;;;;;;;32.55;4.63;;;6.40;99.90;;;;;;5006073;28;20031;-73
2022/02/23 02:14:07;;;;;;;41.15;5.32;;;6.40;99.90;;;;;;5008250;28;20034;-74
2022/02/23 02:16:33;;;;;;;43.30;5.00;;;6.40;99.90;;;;;;5008707;28;20100;-73
2022/02/23 02:19:01;;;;;;;27.98;4.88;;;6.30;99.90;;;;;;5005854;28;20087;-73
2022/02/23 02:22:03;;;;;;;48.35;5.63;;;6.30;99.90;;;;;;5008953;28;20065;-73
2022/02/23 02:24:30;;;;;;;;;;;6.30;99.90;;;;;;5017278;28;20030;-72
2022/02/23 02:26:57;;;;;;;36.40;4.90;;;6.30;99.90;;;;;;5010864;28;19913;-73
2022/02/23 02:29:23;;;;;;;44.78;5.60;;;6.30;99.90;;;;;;5007689;28;20550;-73
2022/02/23 02:31:49;;;;;;;56.28;6.68;;;6.30;99.90;;;;;;5007046;28;20026;-73
2022/02/23 02:34:15;;;;;;;38.90;5.43;;;6.30;99.90;;;;;;5005210;28;20038;-72
2022/02/23 02:36:42;;;;;;;42.33;5.07;;;6.30;99.90;;;;;;5008076;28;20056;-73
2022/02/23 02:39:09;;;;;;;31.67;5.10;;;6.30;99.90;;;;;;5006875;28;20392;-72
2022/02/23 02:41:35;;;;;;;37.10;5.72;;;6.30;99.90;;;;;;5009396;28;20105;-72
2022/02/23 02:44:01;;;;;;;30.40;5.35;;;6.30;99.90;;;;;;5006357;28;20040;-73
2022/02/23 02:46:27;;;;;;;27.98;4.80;;;6.30;99.90;;;;;;5009274;28;20113;-74
2022/02/23 02:48:53;;;;;;;36.25;5.45;;;6.30;99.90;;;;;;5014290;28;20080;-73
2022/02/23 02:51:19;;;;;;;33.97;4.68;;;6.40;99.90;;;;;;5005766;28;20045;-73
2022/02/23 02:53:45;;;;;;;23.67;5.15;;;6.40;99.90;;;;;;5008044;28;20026;-73
2022/02/23 02:56:10;;;;;;;30.20;4.75;;;6.30;99.90;;;;;;5007234;28;20459;-73
2022/02/23 02:58:36;;;;;;;26.15;4.82;;;6.40;99.90;;;;;;5024380;22;20021;-77
2022/02/23 03:01:03;;;;;;;38.05;6.03;;;6.40;99.90;;;;;;5006157;28;20026;-76
2022/02/23 03:03:28;;;;;;;27.88;4.75;;;6.40;99.90;;;;;;5006824;28;20479;-77
2022/02/23 03:05:54;;;;;;;23.38;4.50;;;6.40;99.90;;;;;;5009391;28;20041;-77
2022/02/23 03:08:20;;;;;;;31.00;5.28;;;6.40;99.90;;;;;;5007573;28;20030;-76
2022/02/23 03:10:48;;;;;;;18.92;3.78;;;6.40;99.90;;;;;;5004261;28;20109;-77
2022/02/23 03:13:14;;;;;;;32.85;4.60;;;6.40;99.90;;;;;;5003149;28;20040;-77
2022/02/23 03:15:40;;;;;;;32.50;4.93;;;6.50;99.90;;;;;;5003793;28;20030;-77
2022/02/23 03:18:06;;;;;;;32.13;4.28;;;6.40;99.90;;;;;;5006590;28;20034;-76
2022/02/23 03:20:35;;;;;;;23.60;3.45;;;6.50;99.90;;;;;;5005388;28;20026;-76
2022/02/23 03:23:00;;;;;;;35.00;4.75;;;6.50;99.90;;;;;;5001981;28;20026;-76
2022/02/23 03:25:26;;;;;;;31.25;4.25;;;6.50;99.90;;;;;;4999439;28;20029;-76
2022/02/23 03:27:52;;;;;;;25.95;3.92;;;6.60;99.90;;;;;;5005955;28;20402;-74
2022/02/23 03:30:18;;;;;;;28.83;3.85;;;6.50;99.90;;;;;;5003024;28;20037;-75
2022/02/23 03:32:43;;;;;;;27.42;3.95;;;6.50;99.90;;;;;;5008086;28;20034;-75
2022/02/23 03:35:09;;;;;;;29.58;4.78;;;6.50;99.90;;;;;;5008748;28;20033;-75
2022/02/23 03:37:36;;;;;;;27.25;3.70;;;6.50;99.90;;;;;;5009241;28;20068;-76
2022/02/23 03:40:02;;;;;;;31.75;5.15;;;6.50;99.90;;;;;;5008886;28;20077;-76
2022/02/23 03:42:27;;;;;;;25.65;4.90;;;6.50;99.90;;;;;;5006825;28;20387;-75
2022/02/23 03:44:53;;;;;;;31.25;4.88;;;6.50;99.90;;;;;;5007533;28;20033;-75
2022/02/23 03:47:18;;;;;;;28.40;4.07;;;6.50;99.90;;;;;;5007935;28;20048;-74
2022/02/23 03:49:44;;;;;;;31.10;4.70;;;6.50;99.90;;;;;;5004084;28;20031;-76
2022/02/23 03:52:10;;;;;;;19.75;3.53;;;6.50;99.90;;;;;;5007500;28;20034;-75
2022/02/23 03:54:36;;;;;;;26.85;4.57;;;6.50;99.90;;;;;;5004139;28;20060;-76
2022/02/23 03:57:01;;;;;;;22.10;3.80;;;6.50;99.90;;;;;;5009907;28;20029;-76
2022/02/23 03:59:27;;;;;;;25.23;3.92;;;6.50;99.90;;;;;;5006487;28;20030;-76
2022/02/23 04:01:53;;;;;;;22.25;3.88;;;6.50;99.90;;;;;;5008921;28;20034;-76
2022/02/23 04:04:20;;;;;;;23.38;4.30;;;6.50;99.90;;;;;;5013471;28;20034;-76
2022/02/23 04:06:47;;;;;;;22.73;4.20;;;6.50;99.90;;;;;;5009050;28;20025;-76
2022/02/23 04:09:13;;;;;;;29.55;3.63;;;6.60;99.90;;;;;;5007020;28;20038;-76
2022/02/23 04:11:39;;;;;;;38.30;4.78;;;6.60;99.90;;;;;;5008234;28;20037;-76
2022/02/23 04:14:08;;;;;;;27.50;4.07;;;6.50;99.90;;;;;;5010155;28;20101;-76
2022/02/23 04:16:35;;;;;;;32.30;4.30;;;6.60;99.90;;;;;;4991962;28;20112;-75
2022/02/23 04:19:02;;;;;;;23.00;3.78;;;6.50;99.90;;;;;;5010144;28;20044;-76
2022/02/23 04:21:28;;;;;;;23.83;4.38;;;6.60;99.90;;;;;;5007179;28;20100;-76
2022/02/23 04:23:54;;;;;;;22.67;3.95;;;6.50;99.90;;;;;;5007731;28;20460;-76
2022/02/23 04:26:20;;;;;;;22.02;4.40;;;6.50;99.90;;;;;;5004774;28;20439;-77
2022/02/23 04:28:46;;;;;;;26.42;3.88;;;6.50;99.90;;;;;;5007644;28;20025;-77
2022/02/23 04:31:13;;;;;;;20.38;3.40;;;6.50;99.90;;;;;;5004099;28;20109;-76
2022/02/23 04:33:40;;;;;;;23.50;4.28;;;6.50;99.90;;;;;;5008017;28;20022;-76
2022/02/23 04:36:06;;;;;;;33.22;4.70;;;6.50;99.90;;;;;;5007344;28;20026;-76
2022/02/23 04:38:33;;;;;;;26.80;3.88;;;6.50;99.90;;;;;;5009412;28;20044;-76
2022/02/23 04:40:58;;;;;;;25.55;4.18;;;6.40;99.90;;;;;;5028168;28;20030;-76
2022/02/23 04:43:24;;;;;;;23.55;3.92;;;6.50;99.90;;;;;;5007512;28;20450;-76
2022/02/23 04:45:50;;;;;;;24.73;4.00;;;6.50;99.90;;;;;;5006686;28;20029;-75
2022/02/23 04:48:17;;;;;;;35.30;4.68;;;6.50;99.90;;;;;;4986702;28;20042;-75
2022/02/23 04:50:43;;;;;;;32.88;4.07;;;6.50;99.90;;;;;;5005577;28;20104;-75
2022/02/23 04:53:09;;;;;;;26.40;4.20;;;6.50;99.90;;;;;;5002670;28;20030;-75
2022/02/23 04:55:35;;;;;;;28.55;4.28;;;6.50;99.90;;;;;;5004235;28;20699;-76
2022/02/23 04:58:07;;;;;;;23.38;4.40;;;6.50;99.90;;;;;;5005273;28;20029;-74
2022/02/23 05:00:43;;;;;;;38.67;4.35;;;6.50;99.90;;;;;;5011972;28;20203;-76
2022/02/23 05:03:08;;;;;;;32.72;4.88;;;6.40;99.90;;;;;;5004378;28;20034;-75
2022/02/23 05:05:35;;;;;;;31.55;4.63;;;6.50;99.90;;;;;;4990349;28;20034;-76
2022/02/23 05:08:04;;;;;;;23.77;4.03;;;6.50;99.90;;;;;;5003818;28;20041;-76
2022/02/23 05:10:29;;;;;;;21.00;4.00;;;6.50;99.90;;;;;;5006426;28;20026;-74
2022/02/23 05:12:55;;;;;;;32.53;5.63;;;6.50;99.90;;;;;;5006282;28;20029;-75
2022/02/23 05:15:21;;;;;;;21.95;3.63;;;6.50;99.90;;;;;;5003159;28;20025;-76
2022/02/23 05:17:48;;;;;;;33.60;4.30;;;6.50;99.90;;;;;;5006555;28;20030;-74
2022/02/23 05:20:13;;;;;;;28.45;4.35;;;6.50;99.90;;;;;;5005367;28;20062;-75
2022/02/23 05:22:39;;;;;;;31.15;4.75;;;6.50;99.90;;;;;;5009142;28;20045;-76
2022/02/23 05:25:05;;;;;;;26.52;4.55;;;6.50;99.90;;;;;;5008569;28;20026;-74
2022/02/23 05:27:31;;;;;;;29.00;4.13;;;6.50;99.90;;;;;;5010135;28;20243;-74
2022/02/23 05:29:57;;;;;;;29.17;5.60;;;6.50;99.90;;;;;;5006626;28;20476;-74
2022/02/23 05:32:22;;;;;;;25.95;4.35;;;6.50;99.90;;;;;;5008454;28;20073;-73
2022/02/23 05:34:48;;;;;;;28.60;4.32;;;6.50;99.90;;;;;;5009141;28;20634;-74
2022/02/23 05:37:14;;;;;;;20.80;4.20;;;6.50;99.90;;;;;;5006959;28;20038;-76
2022/02/23 05:39:40;;;;;;;32.67;5.20;;;6.50;99.90;;;;;;5005076;28;20688;-74
2022/02/23 05:42:06;;;;;;;35.13;5.50;;;6.50;99.90;;;;;;5002749;28;20053;-74
2022/02/23 05:44:32;;;;;;;33.30;6.30;;;6.50;99.90;;;;;;5002164;28;20503;-75
2022/02/23 05:46:57;;;;;;;32.38;5.45;;;6.50;99.90;;;;;;5006186;28;20038;-74
2022/02/23 05:49:23;;;;;;;20.60;3.90;;;6.50;99.90;;;;;;5012456;28;20021;-76
2022/02/23 05:51:49;;;;;;;33.95;5.03;;;6.50;99.90;;;;;;5012982;28;20025;-78
2022/02/23 05:54:16;;;;;;;35.72;4.97;;;6.50;99.90;;;;;;5010265;28;20515;-76
2022/02/23 05:56:43;;;;;;;33.25;5.95;;;6.50;99.90;;;;;;5006380;28;20032;-75
2022/02/23 05:59:09;;;;;;;34.70;4.95;;;6.40;99.90;;;;;;5007130;28;20040;-76
2022/02/23 06:01:36;;;;;;;29.13;4.72;;;6.40;99.90;;;;;;5007300;28;20117;-73
2022/02/23 06:04:02;;;;;;;33.88;5.47;;;6.50;99.90;;;;;;5009321;28;20927;-74
2022/02/23 06:06:29;;;;;;;30.10;4.72;;;6.40;99.90;;;;;;5008543;28;20034;-76
2022/02/23 06:08:54;;;;;;;34.60;4.68;;;6.40;99.90;;;;;;5011870;28;20030;-76
2022/02/23 06:11:20;;;;;;;32.45;5.15;;;6.40;99.90;;;;;;5012164;28;20026;-76
2022/02/23 06:13:52;;;;;;;30.60;4.60;;;6.40;99.90;;;;;;5013003;28;20029;-77
2022/02/23 06:16:18;;;;;;;31.42;4.78;;;6.40;99.90;;;;;;4994787;28;20444;-76
2022/02/23 06:18:44;;;;;;;37.40;5.80;;;6.40;99.90;;;;;;5008315;28;20407;-77
2022/02/23 06:21:10;;;;;;;44.05;7.95;;;6.40;99.90;;;;;;4993155;28;20441;-76
2022/02/23 06:23:36;;;;;;;39.38;6.30;;;6.40;99.90;;;;;;5010707;28;20029;-77
2022/02/23 06:26:06;;;;;;;37.58;4.57;;;6.50;99.90;;;;;;4996269;28;20495;-77
2022/02/23 06:28:33;;;;;;;33.30;5.03;;;6.50;99.90;;;;;;4988771;28;20036;-77
2022/02/23 06:30:59;;;;;;;30.92;6.25;;;6.50;99.90;;;;;;5000862;28;20032;-75
2022/02/23 06:33:25;;;;;;;33.58;5.68;;;6.40;99.90;;;;;;5001718;28;20392;-76
2022/02/23 06:35:52;;;;;;;32.47;4.97;;;6.40;99.90;;;;;;5006419;28;20036;-78
2022/02/23 06:38:19;;;;;;;48.95;6.32;;;6.40;99.90;;;;;;5001936;28;20022;-75
2022/02/23 06:40:46;;;;;;;42.50;5.43;;;6.40;99.90;;;;;;5004345;28;20026;-80
2022/02/23 06:43:16;;;;;;;36.97;5.57;;;6.40;99.90;;;;;;5007238;28;20038;-76
2022/02/23 06:45:44;;;;;;;39.38;5.82;;;6.30;99.90;;;;;;5004541;28;20068;-76
2022/02/23 06:48:11;;;;;;;38.35;5.28;;;6.40;99.90;;;;;;5006419;28;20063;-75
2022/02/23 06:50:37;;;;;;;28.20;4.50;;;6.40;99.90;;;;;;4988345;28;20018;-76
2022/02/23 06:53:02;;;;;;;28.75;4.90;;;6.30;99.90;;;;;;5003987;28;20034;-76
2022/02/23 06:55:28;;;;;;;21.75;4.18;;;6.40;99.90;;;;;;5012235;28;20037;-76
2022/02/23 06:57:54;;;;;;;27.17;4.57;;;6.40;99.90;;;;;;4986626;28;20437;-75
2022/02/23 07:00:20;;;;;;;37.30;5.28;;;6.40;99.90;;;;;;5007082;28;20537;-75
2022/02/23 07:02:46;;;;;;;29.38;4.63;;;6.40;99.90;;;;;;5002769;28;20141;-75
2022/02/23 07:05:13;;;;;;;34.58;4.82;;;6.40;99.90;;;;;;5004056;28;20029;-75
2022/02/23 07:07:39;;;;;;;29.27;4.60;;;6.40;99.90;;;;;;5003065;28;20065;-75
2022/02/23 07:10:22;;;;;;;33.58;5.57;;;6.40;99.90;;;;;;5005400;28;20046;-75
2022/02/23 07:12:50;;;;;;;34.67;5.30;;;6.40;99.90;;;;;;5003380;28;20034;-75
2022/02/23 07:15:17;;;;;;;35.70;5.28;;;6.40;99.90;;;;;;5005417;28;20034;-72
2022/02/23 07:17:43;;;;;;;26.50;4.20;;;6.40;99.90;;;;;;5003738;28;20518;-74
2022/02/23 07:20:09;;;;;;;36.33;4.90;;;6.40;99.90;;;;;;4985875;28;20124;-75
2022/02/23 07:22:36;;;;;;;27.95;4.43;;;6.40;99.90;;;;;;5001724;28;20026;-76
2022/02/23 07:25:03;;;;;;;35.63;4.32;;;6.40;99.90;;;;;;5006241;28;20061;-75
2022/02/23 07:27:29;;;;;;;26.65;4.38;;;6.40;99.90;;;;;;4990697;28;20143;-76
2022/02/23 07:29:54;;;;;;;21.80;3.67;;;6.40;99.90;;;;;;5011112;28;20479;-76
2022/02/23 07:32:22;;;;;;;29.80;4.43;;;6.40;99.90;;;;;;5009919;28;20033;-76
2022/02/23 07:34:50;;;;;;;30.48;4.32;;;6.40;99.90;;;;;;5010783;28;20053;-75
2022/02/23 07:37:16;;;;;;;26.40;5.57;;;6.40;99.90;;;;;;5007680;28;20045;-76
2022/02/23 07:39:43;;;;;;;28.05;4.70;;;6.40;99.90;;;;;;5004428;28;20411;-76
2022/02/23 07:42:09;;;;;;;22.38;4.72;;;6.50;99.90;;;;;;5007452;28;20125;-76
2022/02/23 07:44:35;;;;;;;28.58;4.88;;;6.50;99.90;;;;;;5008452;28;20087;-77
2022/02/23 07:47:02;;;;;;;29.98;4.13;;;6.50;99.90;;;;;;5005724;28;20026;-76
2022/02/23 07:49:28;;;;;;;34.05;4.63;;;6.50;99.90;;;;;;4993177;28;20372;-76
2022/02/23 07:51:54;;;;;;;27.77;4.32;;;6.50;99.90;;;;;;5007855;28;20104;-76
2022/02/23 07:54:20;;;;;;;29.92;5.57;;;6.60;99.90;;;;;;5008409;28;20036;-76
2022/02/23 07:56:46;;;;;;;25.98;4.32;;;6.60;99.90;;;;;;5006364;28;20026;-76
2022/02/23 07:59:12;;;;;;;26.20;4.45;;;6.80;99.90;;;;;;5007901;28;20038;-76
2022/02/23 08:01:38;;;;;;;34.28;5.93;;;7.00;99.90;;;;;;5002383;28;20072;-76
2022/02/23 08:04:05;;;;;;;31.25;5.20;;;7.00;99.90;;;;;;5000767;28;20034;-74
2022/02/23 08:06:32;;;;;;;29.50;4.60;;;7.00;99.90;;;;;;5001693;28;20518;-75
2022/02/23 08:08:58;;;;;;;35.58;4.78;;;6.90;99.90;;;;;;5001446;28;20088;-75
2022/02/23 08:11:26;;;;;;;27.17;4.68;;;6.90;99.90;;;;;;5001441;28;20036;-75
2022/02/23 08:14:02;;;;;;;27.25;4.07;;;6.80;99.90;;;;;;5003138;28;20030;-76
2022/02/23 08:19:31;;;;;;;29.50;4.95;;;6.70;99.90;;;;;;5003374;28;20076;-75
2022/02/23 08:22:00;;;;;;;33.95;5.03;;;6.70;99.90;;;;;;5000069;28;21475;-75
2022/02/23 08:24:27;;;;;;;23.77;4.95;;;6.70;99.90;;;;;;5001704;28;20042;-75
2022/02/23 08:26:57;;;;;;;30.40;5.20;;;6.70;99.90;;;;;;5002223;28;20030;-75
2022/02/23 08:29:24;;;;;;;34.83;6.55;;;6.70;99.90;;;;;;5003049;28;20929;-75
2022/02/23 08:31:50;;;;;;;28.98;4.55;;;6.70;99.90;;;;;;5002213;28;20029;-75
2022/02/23 08:34:19;;;;;;;25.02;4.18;;;6.70;99.90;;;;;;4999508;28;20678;-75
2022/02/23 08:36:46;;;;;;;27.35;5.25;;;6.70;99.90;;;;;;5002959;28;20038;-75
2022/02/23 08:39:13;;;;;;;29.92;4.75;;;6.70;99.90;;;;;;5001424;28;20079;-75
2022/02/23 08:41:39;;;;;;;24.88;4.97;;;6.70;99.90;;;;;;5000844;28;20491;-75
2022/02/23 08:44:08;;;;;;;32.63;6.13;;;6.80;99.90;;;;;;5002268;28;20034;-75
2022/02/23 08:46:34;;;;;;;26.23;5.10;;;6.90;99.90;;;;;;5004097;28;20443;-75
2022/02/23 08:49:02;;;;;;;42.28;5.38;;;6.90;99.90;;;;;;5002445;28;20105;-75
2022/02/23 08:51:29;;;;;;;25.17;4.35;;;7.00;99.90;;;;;;5004513;28;20034;-75
2022/02/23 08:53:55;;;;;;;31.77;5.45;;;7.00;99.90;;;;;;5002778;28;20388;-75
2022/02/23 08:56:21;;;;;;;25.38;4.57;;;7.00;99.90;;;;;;5002239;28;20084;-75
2022/02/23 08:58:47;;;;;;;33.70;5.20;;;7.00;99.90;;;;;;5003199;28;20127;-75
2022/02/23 09:01:12;;;;;;;27.55;4.60;;;7.00;99.90;;;;;;5002073;28;20181;-75
2022/02/23 09:03:38;;;;;;;35.20;6.25;;;7.00;99.90;;;;;;5002825;28;20032;-74
2022/02/23 09:06:04;;;;;;;33.42;4.63;;;7.10;99.90;;;;;;5005497;28;20037;-74
2022/02/23 09:08:30;;;;;;;34.80;5.07;;;7.10;99.90;;;;;;5001640;28;20041;-75
2022/02/23 09:10:55;;;;;;;30.08;4.53;;;7.10;99.90;;;;;;5001283;28;20022;-77
2022/02/23 09:13:21;;;;;;;24.05;4.70;;;7.00;99.90;;;;;;5003232;28;20031;-75
2022/02/23 09:15:47;;;;;;;33.10;4.88;;;7.00;99.90;;;;;;5001786;28;20029;-75
2022/02/23 09:18:13;;;;;;;25.23;4.50;;;7.10;99.90;;;;;;4985739;28;20033;-75
2022/02/23 09:20:39;;;;;;;30.58;5.00;;;7.10;99.90;;;;;;5002307;28;20050;-75
2022/02/23 09:23:06;;;;;;;28.65;4.22;;;7.20;99.90;;;;;;5015582;28;20569;-75
2022/02/23 09:25:31;;;;;;;30.30;5.25;;;7.10;99.90;;;;;;5009655;28;20053;-76
2022/02/23 09:27:57;;;;;;;26.75;4.28;;;7.10;99.90;;;;;;4984135;28;20560;-74
2022/02/23 09:30:24;;;;;;;22.55;4.40;;;7.20;99.90;;;;;;4999565;28;20108;-73
2022/02/23 09:32:50;;;;;;;31.73;4.72;;;7.30;99.90;;;;;;5002170;28;20030;-74
2022/02/23 09:35:19;;;;;;;31.02;5.95;;;7.40;99.90;;;;;;4999535;28;20084;-74
2022/02/23 09:37:47;;;;;;;22.35;3.75;;;7.50;99.90;;;;;;5000894;28;20113;-73
2022/02/23 09:40:15;;;;;;;22.15;4.50;;;7.50;99.90;;;;;;5001266;28;20033;-73
2022/02/23 09:42:42;;;;;;;31.90;4.60;;;7.50;99.90;;;;;;5000184;28;20026;-74
2022/02/23 09:45:08;;;;;;;31.05;5.60;;;7.60;99.90;;;;;;5000173;28;20141;-73
2022/02/23 09:47:35;;;;;;;23.70;4.30;;;7.60;99.90;;;;;;5001732;28;20028;-74
2022/02/23 09:50:08;;;;;;;22.92;4.90;;;7.60;99.90;;;;;;4993934;28;20547;-73
2022/02/23 09:52:34;;;;;;;34.25;4.10;;;7.60;99.90;;;;;;4981976;28;20789;-73
2022/02/23 09:55:03;;;;;;;27.25;5.03;;;7.60;99.90;;;;;;4999334;28;21457;-74
2022/02/23 09:57:29;;;;;;;21.27;3.92;;;7.60;99.90;;;;;;5002036;28;20029;-74
2022/02/23 09:59:56;;;;;;;14.70;4.55;;;7.70;99.90;;;;;;4999842;28;20025;-75
2022/02/23 10:02:22;;;;;;;22.60;4.28;;;7.70;99.90;;;;;;5001315;28;20149;-74
2022/02/23 10:04:49;;;;;;;30.80;4.95;;;7.70;99.90;;;;;;4999829;28;20141;-74
2022/02/23 10:07:16;;;;;;;22.85;4.05;;;7.80;99.90;;;;;;5001413;28;21531;-74
2022/02/23 10:09:49;;;;;;;25.60;3.75;;;7.80;99.90;;;;;;5001490;28;20034;-74
2022/02/23 10:12:26;;;;;;;28.60;4.47;;;7.90;99.90;;;;;;5001306;28;20030;-75
2022/02/23 10:15:16;;;;;;;27.73;4.57;;;7.90;99.90;;;;;;4985327;28;20492;-74
2022/02/23 10:17:44;;;;;;;22.90;3.73;;;8.10;99.90;;;;;;4999648;28;20030;-74
2022/02/23 10:20:28;;;;;;;26.20;4.07;;;8.20;99.90;;;;;;5000861;28;20629;-74
2022/02/23 10:23:18;;;;;;;20.67;3.28;;;8.30;99.90;;;;;;4999979;28;20026;-74
2022/02/23 10:26:12;;;;;;;24.52;3.50;;;8.70;99.90;;;;;;4985261;28;20033;-74
2022/02/23 10:28:38;;;;;;;17.48;3.72;;;9.00;99.90;;;;;;5000246;28;20582;-75
2022/02/23 10:31:09;;;;;;;16.85;3.15;;;9.50;99.90;;;;;;5000601;28;20037;-74
2022/02/23 10:33:38;;;;;;;15.02;3.58;;;10.50;99.90;;;;;;5002367;28;20026;-75
2022/02/23 10:36:16;;;;;;;15.90;4.38;;;11.40;99.90;;;;;;5001278;28;20585;-78
2022/02/23 10:38:43;;;;;;;16.45;3.97;;;12.70;99.90;;;;;;5003160;28;20026;-75
2022/02/23 10:41:24;;;;;;;14.20;3.50;;;14.20;99.90;;;;;;5001501;28;20026;-74
2022/02/23 10:43:51;;;;;;;17.63;4.47;;;15.50;96.30;;;;;;5003451;28;20553;-77
2022/02/23 10:46:18;;;;;;;15.95;3.70;;;16.90;79.40;;;;;;5004847;28;20495;-74
2022/02/23 10:48:46;;;;;;;18.00;4.15;;;17.30;67.10;;;;;;4988472;28;20083;-75
2022/02/23 10:51:25;;;;;;;16.88;3.78;;;18.50;70.00;;;;;;5002667;28;20033;-74
2022/02/23 10:53:52;;;;;;;13.55;3.75;;;19.30;64.70;;;;;;5004261;28;20076;-74
2022/02/23 10:56:25;;;;;;;14.93;3.65;;;19.80;59.40;;;;;;5002489;28;20022;-73
2022/02/23 10:59:05;;;;;;;12.90;3.72;;;20.00;54.00;;;;;;5003299;28;20403;-75
2022/02/23 11:01:33;;;;;;;15.23;4.33;;;20.20;57.10;;;;;;5003475;28;20026;-75
2022/02/23 11:03:59;;;;;;;13.60;4.03;;;20.30;50.30;;;;;;5007487;28;20026;-74
2022/02/23 11:06:25;;;;;;;10.82;3.00;;;19.40;56.20;;;;;;5004889;28;20029;-75
2022/02/23 11:08:52;;;;;;;10.88;3.15;;;17.90;53.50;;;;;;5004767;28;20108;-74
2022/02/23 11:11:19;;;;;;;13.77;3.72;;;16.30;71.00;;;;;;5011688;28;20045;-74
2022/02/23 11:13:45;;;;;;;9.70;2.50;;;16.10;80.80;;;;;;5008948;28;20053;-74
2022/02/23 11:16:13;;;;;;;14.32;3.63;;;15.40;66.00;;;;;;5016139;28;20030;-75
2022/02/23 11:18:42;;;;;;;12.25;2.97;;;15.10;82.20;;;;;;5018577;28;20112;-75
2022/02/23 11:21:11;;;;;;;10.05;2.75;;;15.80;81.60;;;;;;5014182;28;20017;-74
2022/02/23 11:23:39;;;;;;;11.70;3.13;;;16.50;76.00;;;;;;5004777;28;20034;-74
2022/02/23 11:26:06;;;;;;;10.15;2.63;;;17.20;62.70;;;;;;4985649;28;20030;-74
2022/02/23 11:28:35;;;;;;;8.75;2.75;;;18.20;57.40;;;;;;4986736;28;20445;-73
2022/02/23 11:31:13;;;;;;;8.45;2.22;;;18.90;57.40;;;;;;5002334;28;20026;-74
2022/02/23 11:34:00;;;;;;;7.00;2.20;;;19.00;52.80;;;;;;4996105;28;20033;-73
2022/02/23 11:36:31;;;;;;;11.80;2.47;;;18.40;54.80;;;;;;5000210;28;20032;-76
2022/02/23 11:39:07;;;;;;;10.35;2.75;;;17.70;55.70;;;;;;5018715;28;20108;-74
2022/02/23 11:41:38;;;;;;;7.18;2.28;;;17.60;53.00;;;;;;5003296;28;20076;-72
2022/02/23 11:44:11;;;;;;;;;;;17.40;63.70;;;;;;5003018;28;20556;-73
2022/02/23 11:46:53;;;;;;;11.25;2.10;;;16.40;56.60;;;;;;5001577;28;19971;-73
2022/02/23 11:49:48;;;;;;;14.35;2.08;;;15.60;61.40;;;;;;5002203;28;20034;-73
2022/02/23 11:52:41;;;;;;;12.32;3.35;;;14.20;68.90;;;;;;4985288;28;20380;-73
2022/02/23 11:55:28;;;;;;;14.00;2.88;;;13.30;84.50;;;;;;4983574;28;20485;-73
2022/02/23 11:57:58;;;;;;;10.23;2.10;;;12.60;89.60;;;;;;5002855;28;20072;-74
2022/02/23 12:00:44;;;;;;;9.85;2.15;;;12.00;94.50;;;;;;5004316;28;20124;-73
2022/02/23 12:03:30;;;;;;;15.10;2.92;;;11.50;95.50;;;;;;4998941;28;20105;-74
2022/02/23 12:05:59;;;;;;;14.63;1.80;;;11.10;96.70;;;;;;4985924;28;20112;-73
2022/02/23 12:08:50;;;;;;;10.52;2.17;;;10.90;97.50;;;;;;4985934;28;20026;-74
2022/02/23 12:11:39;;;;;;;9.27;1.95;;;10.80;98.10;;;;;;5021568;28;20037;-73
2022/02/23 12:14:04;;;;;;;12.90;2.20;;;10.50;99.00;;;;;;5000745;28;20042;-73
2022/02/23 12:16:45;;;;;;;6.93;1.75;;;10.20;98.70;;;;;;4988155;28;20044;-73
2022/02/23 12:19:11;;;;;;;8.80;1.90;;;10.00;98.20;;;;;;4988734;28;20380;-73
2022/02/23 12:21:48;;;;;;;11.98;2.33;;;9.90;98.70;;;;;;4988525;28;20026;-73
2022/02/23 12:24:19;;;;;;;11.43;2.00;;;9.80;99.80;;;;;;5005418;28;20040;-73
2022/02/23 12:26:47;;;;;;;5.43;1.48;;;9.60;98.50;;;;;;5006926;28;20029;-73
2022/02/23 12:29:15;;;;;;;9.35;1.83;;;9.50;99.30;;;;;;4997887;28;20037;-74
2022/02/23 12:31:45;;;;;;;10.18;1.77;;;9.50;99.90;;;;;;5002890;28;20041;-74
2022/02/23 12:34:12;;;;;;;10.38;2.13;;;9.40;99.90;;;;;;5000198;28;22949;-73
2022/02/23 12:36:49;;;;;;;6.35;1.98;;;9.40;99.20;;;;;;4987293;28;20495;-74
2022/02/23 12:39:20;;;;;;;8.27;1.83;;;9.40;99.50;;;;;;5003773;28;20042;-74
2022/02/23 12:42:00;;;;;;;6.88;1.73;;;9.60;99.90;;;;;;4972801;28;20030;-74
2022/02/23 12:44:32;;;;;;;74.10;35.55;;;9.80;97.60;;;;;;5005263;28;20050;-74
2022/02/23 12:47:01;;;;;;;23.23;10.90;;;9.80;97.10;;;;;;5003269;28;20714;-74
2022/02/23 12:49:28;;;;;;;34.17;15.23;;;9.70;97.50;;;;;;4987628;28;20152;-74
2022/02/23 12:51:56;;;;;;;250.18;142.18;;;9.60;98.50;;;;;;4983229;28;20037;-74